AirNav   TITAN Aviation Fuels
 
 1430 users online  

MU38 Bogard-Cowgill Airport
Milan, Missouri, USA

GOING TO MILAN?


FAA INFORMATION EFFECTIVE 01 DECEMBER 2022

Location

FAA Identifier: MU38
Lat/Long: 40-10-41.9900N 093-07-50.8250W
40-10.699833N 093-07.847083W
40.1783306,-93.1307847
(estimated)
Elevation: 953 ft. / 290 m (estimated)
Variation: 04E (1985)
From city: 1 mile S of MILAN, MO
Time zone: UTC -6 (UTC -5 during Daylight Saving Time)
Zip code: 63556

Airport Operations

Airport use: Private use. Permission required prior to landing
Activation date: 11/1983
Control tower: no
ARTCC: KANSAS CITY CENTER
FSS: COLUMBIA FLIGHT SERVICE STATION
Attendance: UNATNDD
Wind indicator: yes
Segmented circle: no

Nearby radio navigation aids

VOR radial/distance  VOR name  Freq  Var
IRKr270/24.9KIRKSVILLE VORTAC114.6006E

Airport Services

Fuel available: 100LL

Runway Information

Runway 12/30

Dimensions: 3050 x 50 ft. / 930 x 15 m
Surface: turf, in excellent condition
Runway edge markings: BASIC RUBBER TIRES PAINTED WITH YELLOW PAINT.
RUNWAY 12  RUNWAY 30
Latitude: 40-10.811500N40-10.588167N
Longitude: 093-08.140500W093-07.553667W
Elevation: 953.0 ft.880.0 ft.
Traffic pattern: leftright
Runway heading: 112 magnetic, 116 true292 magnetic, 296 true

Airport Ownership and Management from official FAA records

Ownership: Privately-owned
Owner: ROBERT CLINTON BOGARD JR
5271 63RD AVENUE SE
ST CLOUD, MN 56304-9744
Phone (320) 290-5798
OR CALL 660-265-1036
Manager: H. M. COWGILL
52661 BUSINESS HWY 5
MILAN, MO 63556
Phone (660) 265-8255
OR CALL 660-292-2074

Airport Operational Statistics

Aircraft based on the field: 1
Single engine airplanes: 1
    

Additional Remarks

TWR 300' HIGH 2.2NM NORTH; TWR 100' HIGH .2NM NORTH; TWR 75' HIGH 1.5NM NORTH; TWR 150' HIGH 1.4NM NORTH; TWR 100' HIGH 1.4NM NORTH.
ENDS AND EDGE OF RWY MKD WITH ORANGE CONES.
FOR CD CTC KANSAS CITY ARTCC AT 913-254-8508.

Instrument Procedures

There are no published instrument procedures at MU38.

Some nearby airports with instrument procedures:

KTRX - Trenton Municipal Airport (22 nm W)
MO8 - North Central Missouri Regional Airport (25 nm S)
KIRK - Kirksville Regional Airport (27 nm E)
KCHT - Chillicothe Municipal Airport (29 nm SW)
KTVK - Centerville Municipal Airport (32 nm N)
 
Loc | Ops | Rwys | IFR | FBO | Links
Com | Nav | Svcs | Stats | Notes
Area around MU38 (Bogard-Cowgill Airport)
 
Road maps at: MapQuest Bing Google
 
Aerial photo
No photo
 
Sectional chart

 
Airport distance calculator
Flying to Bogard-Cowgill Airport? Find the distance to fly.

From to MU38

Sunrise and sunset
Times for 02-Dec-2022
 Local
(UTC-6)
 Zulu
(UTC)
Morning civil twilight06:4812:48
Sunrise07:1813:18
Sunset16:4622:46
Evening civil twilight17:1623:16

Current date and time
Zulu (UTC)  02-Dec-2022 16:56:34
Local (UTC-6)  02-Dec-2022 10:56:34
 
METAR
KIRK 
27nm E 
021555Z AUTO 19017G31KT 10SM CLR 09/01 A2977 RMK AO2 PK WND 17031/1553 SLP086 T00940011
KCDJ 
30nm SW 
021551Z AUTO 19017G28KT 11/03 A2975 RMK AO1 PK WND 19028/1550 SLP081 T01060033
KTVK 
32nm N 
021635Z AUTO 17019G27KT 10SM CLR 09/02 A2970 RMK AO2
KLWD 
45nm NW 
021553Z AUTO 20018G28KT 10SM OVC022 08/03 A2967 RMK AO2 PK WND 19028/1531 SLP052 T00830028
TAF
NOTAMs
Click for the latest NOTAMs
NOTAMs are issued by the DoD/FAA and will open in a separate window not controlled by AirNav.

 

 
 

Would you like to see your business listed on this page?

 If your business provides an interesting product or service to pilots, flight crews, aircraft, or users of the Bogard-Cowgill Airport, you should consider listing it here.  To start the listing process, click on the button below
 
Add a business
 

Other Pages about Bogard-Cowgill Airport

Update a link
 
Copyright © AirNav, LLC. All rights reserved. Privacy Policy  Contact